Main page
METAR-TAF:

METAR-TAF

Airports :

Malabo International Airport

Malabo, Equatorial Guinea

latitude: 03-45-18N, longitude: 08-42-31E, elevation: 23 m

METAR: missing

Time: 02:31 (01:31 UTC)

Forecast

The report was made 2 hours and 31 minutes ago, at 23:00 UTC
Forecast valid from 19 at 00 UTC to 20 at 06 UTC
Wind 8 kt from the West/Southwest
Visibility 10 km or more
Scattered clouds at a height of 1000 ft
Few clouds at a height of 2000 ft, Cumulonimbus.
Probability 30% :
Temporary
from 19 at 11 UTC to 19 at 16 UTC
Broken clouds at a height of 1000 ft
Few clouds at a height of 2000 ft, Cumulonimbus.
Probability 30% :
Temporary
from 19 at 22 UTC to 20 at 06 UTC
thunderstorm

TAF: FGSL 182300Z 1900/2006 24008KT 9999 SCT010 FEW020CB PROB30 TEMPO 1911/1916 BKN010 FEW020CB PROB30 TEMPO 1922/2006 TS

Weather observations and forecasts of more than 4000 airports (METAR and TAF reports).

The available stations are represented by yellow and red dots on the map.

Hover mouse over dot to see the name of the station.

Then click to see weather observations and forecasts.

To change the map : click on the green buttons with a black cross to zoom in, on the green button with a dash to zoom out, or on the green arrows for adjacent maps.


METAR-TAF: